sensor_id;sensor_type;location;lat;lon;timestamp;P1;durP1;ratioP1;P2;durP2;ratioP2
77078;SDS011;66004;55.096;38.760;2023-05-07T00:01:53;7.50;;;3.40;;
77078;SDS011;66004;55.096;38.760;2023-05-07T00:04:19;8.10;;;3.10;;
77078;SDS011;66004;55.096;38.760;2023-05-07T00:09:11;6.93;;;2.85;;
77078;SDS011;66004;55.096;38.760;2023-05-07T00:11:36;6.63;;;3.30;;
77078;SDS011;66004;55.096;38.760;2023-05-07T00:14:01;5.07;;;2.88;;
77078;SDS011;66004;55.096;38.760;2023-05-07T00:16:27;4.90;;;2.70;;
77078;SDS011;66004;55.096;38.760;2023-05-07T00:18:53;6.38;;;2.63;;
77078;SDS011;66004;55.096;38.760;2023-05-07T00:21:18;6.25;;;2.97;;
77078;SDS011;66004;55.096;38.760;2023-05-07T00:23:44;10.00;;;2.90;;
77078;SDS011;66004;55.096;38.760;2023-05-07T00:26:09;6.40;;;3.17;;
77078;SDS011;66004;55.096;38.760;2023-05-07T00:28:35;7.03;;;2.60;;
77078;SDS011;66004;55.096;38.760;2023-05-07T00:31:00;6.53;;;2.97;;
77078;SDS011;66004;55.096;38.760;2023-05-07T00:33:26;7.47;;;2.95;;
77078;SDS011;66004;55.096;38.760;2023-05-07T00:35:52;6.35;;;3.10;;
77078;SDS011;66004;55.096;38.760;2023-05-07T00:38:19;8.18;;;3.03;;
77078;SDS011;66004;55.096;38.760;2023-05-07T00:40:45;12.43;;;3.15;;
77078;SDS011;66004;55.096;38.760;2023-05-07T00:43:11;6.68;;;3.15;;
77078;SDS011;66004;55.096;38.760;2023-05-07T00:45:37;5.30;;;2.88;;
77078;SDS011;66004;55.096;38.760;2023-05-07T00:48:03;4.93;;;2.83;;
77078;SDS011;66004;55.096;38.760;2023-05-07T00:52:55;6.30;;;2.92;;
77078;SDS011;66004;55.096;38.760;2023-05-07T00:55:21;7.15;;;3.17;;
77078;SDS011;66004;55.096;38.760;2023-05-07T00:57:48;9.02;;;3.78;;
77078;SDS011;66004;55.096;38.760;2023-05-07T01:00:15;8.48;;;3.88;;
77078;SDS011;66004;55.096;38.760;2023-05-07T01:02:41;7.80;;;4.00;;
77078;SDS011;66004;55.096;38.760;2023-05-07T01:05:07;13.25;;;5.28;;
77078;SDS011;66004;55.096;38.760;2023-05-07T01:07:36;9.35;;;4.63;;
77078;SDS011;66004;55.096;38.760;2023-05-07T01:10:04;12.65;;;4.55;;
77078;SDS011;66004;55.096;38.760;2023-05-07T01:12:30;9.48;;;4.43;;
77078;SDS011;66004;55.096;38.760;2023-05-07T01:14:56;10.20;;;3.95;;
77078;SDS011;66004;55.096;38.760;2023-05-07T01:19:48;16.77;;;3.40;;
77078;SDS011;66004;55.096;38.760;2023-05-07T01:22:14;6.03;;;3.00;;
77078;SDS011;66004;55.096;38.760;2023-05-07T01:24:41;6.43;;;3.03;;
77078;SDS011;66004;55.096;38.760;2023-05-07T01:27:07;7.40;;;3.78;;
77078;SDS011;66004;55.096;38.760;2023-05-07T01:29:33;7.97;;;3.40;;
77078;SDS011;66004;55.096;38.760;2023-05-07T01:31:59;7.93;;;3.40;;
77078;SDS011;66004;55.096;38.760;2023-05-07T01:34:27;7.65;;;3.85;;
77078;SDS011;66004;55.096;38.760;2023-05-07T01:36:55;6.35;;;3.00;;
77078;SDS011;66004;55.096;38.760;2023-05-07T01:39:27;6.60;;;3.33;;
77078;SDS011;66004;55.096;38.760;2023-05-07T01:41:54;8.25;;;3.78;;
77078;SDS011;66004;55.096;38.760;2023-05-07T01:44:21;5.63;;;3.35;;
77078;SDS011;66004;55.096;38.760;2023-05-07T01:49:13;7.75;;;3.42;;
77078;SDS011;66004;55.096;38.760;2023-05-07T01:51:40;7.45;;;3.05;;
77078;SDS011;66004;55.096;38.760;2023-05-07T01:54:06;5.15;;;2.75;;
77078;SDS011;66004;55.096;38.760;2023-05-07T01:56:33;8.13;;;3.42;;
77078;SDS011;66004;55.096;38.760;2023-05-07T01:58:59;8.40;;;3.08;;
77078;SDS011;66004;55.096;38.760;2023-05-07T02:01:24;13.88;;;3.70;;
77078;SDS011;66004;55.096;38.760;2023-05-07T02:03:50;6.60;;;3.75;;
77078;SDS011;66004;55.096;38.760;2023-05-07T02:06:15;8.32;;;3.75;;
77078;SDS011;66004;55.096;38.760;2023-05-07T02:08:41;7.13;;;3.25;;
77078;SDS011;66004;55.096;38.760;2023-05-07T02:11:06;6.47;;;3.67;;
77078;SDS011;66004;55.096;38.760;2023-05-07T02:13:33;7.63;;;3.08;;
77078;SDS011;66004;55.096;38.760;2023-05-07T02:15:59;10.93;;;3.33;;
77078;SDS011;66004;55.096;38.760;2023-05-07T02:18:25;8.45;;;4.15;;
77078;SDS011;66004;55.096;38.760;2023-05-07T02:20:51;10.07;;;4.60;;
77078;SDS011;66004;55.096;38.760;2023-05-07T02:23:16;13.80;;;5.35;;
77078;SDS011;66004;55.096;38.760;2023-05-07T02:25:42;11.60;;;4.63;;
77078;SDS011;66004;55.096;38.760;2023-05-07T02:28:07;10.48;;;4.60;;
77078;SDS011;66004;55.096;38.760;2023-05-07T02:30:33;9.18;;;5.20;;
77078;SDS011;66004;55.096;38.760;2023-05-07T02:32:58;12.95;;;4.57;;
77078;SDS011;66004;55.096;38.760;2023-05-07T02:35:24;10.57;;;3.80;;
77078;SDS011;66004;55.096;38.760;2023-05-07T02:40:16;6.57;;;3.58;;
77078;SDS011;66004;55.096;38.760;2023-05-07T02:42:41;6.32;;;3.45;;
77078;SDS011;66004;55.096;38.760;2023-05-07T02:45:07;7.65;;;3.72;;
77078;SDS011;66004;55.096;38.760;2023-05-07T02:47:33;7.82;;;3.53;;
77078;SDS011;66004;55.096;38.760;2023-05-07T02:52:15;7.47;;;3.05;;
77078;SDS011;66004;55.096;38.760;2023-05-07T02:54:40;7.70;;;3.80;;
77078;SDS011;66004;55.096;38.760;2023-05-07T02:57:06;6.97;;;3.20;;
77078;SDS011;66004;55.096;38.760;2023-05-07T02:59:31;9.30;;;3.55;;
77078;SDS011;66004;55.096;38.760;2023-05-07T03:01:57;7.20;;;4.03;;
77078;SDS011;66004;55.096;38.760;2023-05-07T03:04:22;6.57;;;3.58;;
77078;SDS011;66004;55.096;38.760;2023-05-07T03:06:48;8.60;;;3.72;;
77078;SDS011;66004;55.096;38.760;2023-05-07T03:09:13;7.50;;;3.72;;
77078;SDS011;66004;55.096;38.760;2023-05-07T03:11:39;6.38;;;3.70;;
77078;SDS011;66004;55.096;38.760;2023-05-07T03:14:04;9.20;;;4.10;;
77078;SDS011;66004;55.096;38.760;2023-05-07T03:16:30;12.38;;;4.07;;
77078;SDS011;66004;55.096;38.760;2023-05-07T03:18:55;8.27;;;3.78;;
77078;SDS011;66004;55.096;38.760;2023-05-07T03:21:21;8.82;;;4.32;;
77078;SDS011;66004;55.096;38.760;2023-05-07T03:23:46;9.55;;;4.40;;
77078;SDS011;66004;55.096;38.760;2023-05-07T03:26:12;7.90;;;4.15;;
77078;SDS011;66004;55.096;38.760;2023-05-07T03:28:37;8.15;;;4.07;;
77078;SDS011;66004;55.096;38.760;2023-05-07T03:31:03;9.50;;;3.92;;
77078;SDS011;66004;55.096;38.760;2023-05-07T03:33:28;9.23;;;3.95;;
77078;SDS011;66004;55.096;38.760;2023-05-07T03:35:54;6.65;;;4.20;;
77078;SDS011;66004;55.096;38.760;2023-05-07T03:38:19;10.07;;;5.03;;
77078;SDS011;66004;55.096;38.760;2023-05-07T03:40:45;8.85;;;4.20;;
77078;SDS011;66004;55.096;38.760;2023-05-07T03:43:10;7.57;;;4.00;;
77078;SDS011;66004;55.096;38.760;2023-05-07T03:45:36;7.78;;;4.13;;
77078;SDS011;66004;55.096;38.760;2023-05-07T03:48:02;10.50;;;4.38;;
77078;SDS011;66004;55.096;38.760;2023-05-07T03:50:27;8.40;;;3.83;;
77078;SDS011;66004;55.096;38.760;2023-05-07T03:52:53;10.15;;;4.30;;
77078;SDS011;66004;55.096;38.760;2023-05-07T03:55:18;10.73;;;4.60;;
77078;SDS011;66004;55.096;38.760;2023-05-07T03:57:44;9.35;;;4.07;;
77078;SDS011;66004;55.096;38.760;2023-05-07T04:00:09;7.57;;;3.67;;
77078;SDS011;66004;55.096;38.760;2023-05-07T04:02:36;7.50;;;4.00;;
77078;SDS011;66004;55.096;38.760;2023-05-07T04:05:01;7.97;;;3.72;;
77078;SDS011;66004;55.096;38.760;2023-05-07T04:07:27;8.23;;;3.53;;
77078;SDS011;66004;55.096;38.760;2023-05-07T04:09:52;7.03;;;3.70;;
77078;SDS011;66004;55.096;38.760;2023-05-07T04:12:18;8.10;;;3.67;;
77078;SDS011;66004;55.096;38.760;2023-05-07T04:14:43;9.95;;;3.90;;
77078;SDS011;66004;55.096;38.760;2023-05-07T04:17:09;8.13;;;3.53;;
77078;SDS011;66004;55.096;38.760;2023-05-07T04:19:35;6.15;;;2.95;;
77078;SDS011;66004;55.096;38.760;2023-05-07T04:22:01;8.13;;;3.53;;
77078;SDS011;66004;55.096;38.760;2023-05-07T04:24:27;7.05;;;2.72;;
77078;SDS011;66004;55.096;38.760;2023-05-07T04:26:52;6.30;;;2.97;;
77078;SDS011;66004;55.096;38.760;2023-05-07T04:29:18;5.45;;;3.45;;
77078;SDS011;66004;55.096;38.760;2023-05-07T04:31:43;4.28;;;2.60;;
77078;SDS011;66004;55.096;38.760;2023-05-07T04:34:12;7.68;;;3.00;;
77078;SDS011;66004;55.096;38.760;2023-05-07T04:36:38;6.30;;;3.08;;
77078;SDS011;66004;55.096;38.760;2023-05-07T04:39:04;7.35;;;3.20;;
77078;SDS011;66004;55.096;38.760;2023-05-07T04:41:29;5.45;;;3.00;;
77078;SDS011;66004;55.096;38.760;2023-05-07T04:43:55;10.98;;;3.85;;
77078;SDS011;66004;55.096;38.760;2023-05-07T04:46:22;6.47;;;3.30;;
77078;SDS011;66004;55.096;38.760;2023-05-07T04:48:48;4.57;;;3.03;;
77078;SDS011;66004;55.096;38.760;2023-05-07T04:51:14;5.57;;;3.17;;
77078;SDS011;66004;55.096;38.760;2023-05-07T04:53:39;7.45;;;3.22;;
77078;SDS011;66004;55.096;38.760;2023-05-07T04:56:05;3.75;;;2.60;;
77078;SDS011;66004;55.096;38.760;2023-05-07T04:58:31;6.70;;;3.42;;
77078;SDS011;66004;55.096;38.760;2023-05-07T05:00:57;7.32;;;3.10;;
77078;SDS011;66004;55.096;38.760;2023-05-07T05:03:23;7.03;;;3.30;;
77078;SDS011;66004;55.096;38.760;2023-05-07T05:05:49;8.23;;;3.30;;
77078;SDS011;66004;55.096;38.760;2023-05-07T05:08:17;5.15;;;3.22;;
77078;SDS011;66004;55.096;38.760;2023-05-07T05:10:42;6.07;;;2.70;;
77078;SDS011;66004;55.096;38.760;2023-05-07T05:13:08;8.25;;;3.00;;
77078;SDS011;66004;55.096;38.760;2023-05-07T05:15:34;7.35;;;2.90;;
77078;SDS011;66004;55.096;38.760;2023-05-07T05:18:00;8.40;;;2.90;;
77078;SDS011;66004;55.096;38.760;2023-05-07T05:20:25;7.63;;;2.17;;
77078;SDS011;66004;55.096;38.760;2023-05-07T05:22:51;3.60;;;1.83;;
77078;SDS011;66004;55.096;38.760;2023-05-07T05:25:16;2.63;;;1.58;;
77078;SDS011;66004;55.096;38.760;2023-05-07T05:27:42;5.53;;;2.33;;
77078;SDS011;66004;55.096;38.760;2023-05-07T05:30:08;11.88;;;2.50;;
77078;SDS011;66004;55.096;38.760;2023-05-07T05:32:34;7.55;;;2.08;;
77078;SDS011;66004;55.096;38.760;2023-05-07T05:34:59;2.95;;;1.85;;
77078;SDS011;66004;55.096;38.760;2023-05-07T05:37:25;2.70;;;1.58;;
77078;SDS011;66004;55.096;38.760;2023-05-07T05:39:50;4.05;;;1.70;;
77078;SDS011;66004;55.096;38.760;2023-05-07T05:42:16;4.43;;;1.80;;
77078;SDS011;66004;55.096;38.760;2023-05-07T05:44:41;3.63;;;1.70;;
77078;SDS011;66004;55.096;38.760;2023-05-07T05:47:07;4.35;;;1.88;;
77078;SDS011;66004;55.096;38.760;2023-05-07T05:49:32;2.67;;;1.40;;
77078;SDS011;66004;55.096;38.760;2023-05-07T05:51:58;5.10;;;1.20;;
77078;SDS011;66004;55.096;38.760;2023-05-07T05:54:24;4.80;;;1.20;;
77078;SDS011;66004;55.096;38.760;2023-05-07T05:56:49;5.95;;;1.33;;
77078;SDS011;66004;55.096;38.760;2023-05-07T05:59:15;3.03;;;1.00;;
77078;SDS011;66004;55.096;38.760;2023-05-07T06:01:41;2.15;;;1.30;;
77078;SDS011;66004;55.096;38.760;2023-05-07T06:04:06;4.50;;;1.20;;
77078;SDS011;66004;55.096;38.760;2023-05-07T06:06:32;1.85;;;1.23;;
77078;SDS011;66004;55.096;38.760;2023-05-07T06:08:57;2.42;;;1.10;;
77078;SDS011;66004;55.096;38.760;2023-05-07T06:11:23;2.63;;;1.38;;
77078;SDS011;66004;55.096;38.760;2023-05-07T06:13:48;2.38;;;1.20;;
77078;SDS011;66004;55.096;38.760;2023-05-07T06:16:14;2.20;;;1.20;;
77078;SDS011;66004;55.096;38.760;2023-05-07T06:21:05;1.88;;;1.00;;
77078;SDS011;66004;55.096;38.760;2023-05-07T06:23:31;1.58;;;1.10;;
77078;SDS011;66004;55.096;38.760;2023-05-07T06:25:56;5.53;;;2.42;;
77078;SDS011;66004;55.096;38.760;2023-05-07T06:28:22;4.18;;;1.60;;
77078;SDS011;66004;55.096;38.760;2023-05-07T06:30:47;2.70;;;1.55;;
77078;SDS011;66004;55.096;38.760;2023-05-07T06:33:15;3.13;;;1.23;;
77078;SDS011;66004;55.096;38.760;2023-05-07T06:35:40;6.78;;;2.03;;
77078;SDS011;66004;55.096;38.760;2023-05-07T06:38:06;2.70;;;1.52;;
77078;SDS011;66004;55.096;38.760;2023-05-07T06:40:31;3.13;;;1.70;;
77078;SDS011;66004;55.096;38.760;2023-05-07T06:42:57;2.22;;;1.40;;
77078;SDS011;66004;55.096;38.760;2023-05-07T06:45:22;2.88;;;1.73;;
77078;SDS011;66004;55.096;38.760;2023-05-07T06:50:14;4.97;;;1.45;;
77078;SDS011;66004;55.096;38.760;2023-05-07T06:52:41;1.80;;;1.23;;
77078;SDS011;66004;55.096;38.760;2023-05-07T06:55:07;2.95;;;1.40;;
77078;SDS011;66004;55.096;38.760;2023-05-07T06:59:58;2.40;;;1.38;;
77078;SDS011;66004;55.096;38.760;2023-05-07T07:02:24;4.47;;;1.25;;
77078;SDS011;66004;55.096;38.760;2023-05-07T07:04:49;2.00;;;0.95;;
77078;SDS011;66004;55.096;38.760;2023-05-07T07:07:15;2.38;;;1.35;;
77078;SDS011;66004;55.096;38.760;2023-05-07T07:09:41;2.72;;;1.10;;
77078;SDS011;66004;55.096;38.760;2023-05-07T07:12:06;1.40;;;1.15;;
77078;SDS011;66004;55.096;38.760;2023-05-07T07:14:32;1.90;;;1.08;;
77078;SDS011;66004;55.096;38.760;2023-05-07T07:16:57;3.63;;;1.02;;
77078;SDS011;66004;55.096;38.760;2023-05-07T07:19:23;1.95;;;0.70;;
77078;SDS011;66004;55.096;38.760;2023-05-07T07:21:48;2.28;;;1.02;;
77078;SDS011;66004;55.096;38.760;2023-05-07T07:24:14;1.95;;;1.02;;
77078;SDS011;66004;55.096;38.760;2023-05-07T07:26:44;1.60;;;1.13;;
77078;SDS011;66004;55.096;38.760;2023-05-07T07:29:10;2.58;;;1.20;;
77078;SDS011;66004;55.096;38.760;2023-05-07T07:34:02;1.08;;;0.90;;
77078;SDS011;66004;55.096;38.760;2023-05-07T07:36:27;2.85;;;0.90;;
77078;SDS011;66004;55.096;38.760;2023-05-07T07:41:18;1.60;;;1.10;;
77078;SDS011;66004;55.096;38.760;2023-05-07T07:43:44;1.85;;;1.10;;
77078;SDS011;66004;55.096;38.760;2023-05-07T07:46:11;1.63;;;1.42;;
77078;SDS011;66004;55.096;38.760;2023-05-07T07:48:37;4.03;;;1.73;;
77078;SDS011;66004;55.096;38.760;2023-05-07T07:51:02;4.15;;;2.30;;
77078;SDS011;66004;55.096;38.760;2023-05-07T07:55:53;1.75;;;1.40;;
77078;SDS011;66004;55.096;38.760;2023-05-07T08:00:45;3.00;;;1.23;;
77078;SDS011;66004;55.096;38.760;2023-05-07T08:03:12;5.13;;;1.00;;
77078;SDS011;66004;55.096;38.760;2023-05-07T08:05:37;3.40;;;1.70;;
77078;SDS011;66004;55.096;38.760;2023-05-07T08:08:03;1.90;;;1.10;;
77078;SDS011;66004;55.096;38.760;2023-05-07T08:12:55;2.58;;;1.00;;
77078;SDS011;66004;55.096;38.760;2023-05-07T08:15:20;4.03;;;1.45;;
77078;SDS011;66004;55.096;38.760;2023-05-07T08:17:45;5.60;;;1.45;;
77078;SDS011;66004;55.096;38.760;2023-05-07T08:22:36;3.10;;;1.40;;
77078;SDS011;66004;55.096;38.760;2023-05-07T08:25:02;6.90;;;1.73;;
77078;SDS011;66004;55.096;38.760;2023-05-07T08:27:29;2.13;;;0.98;;
77078;SDS011;66004;55.096;38.760;2023-05-07T08:29:55;5.72;;;2.47;;
77078;SDS011;66004;55.096;38.760;2023-05-07T08:32:20;4.68;;;2.03;;
77078;SDS011;66004;55.096;38.760;2023-05-07T08:34:47;6.10;;;3.47;;
77078;SDS011;66004;55.096;38.760;2023-05-07T08:37:13;5.40;;;1.40;;
77078;SDS011;66004;55.096;38.760;2023-05-07T08:42:04;2.15;;;1.20;;
77078;SDS011;66004;55.096;38.760;2023-05-07T08:46:58;2.08;;;1.40;;
77078;SDS011;66004;55.096;38.760;2023-05-07T09:31:10;5.20;;;2.10;;
77078;SDS011;66004;55.096;38.760;2023-05-07T09:33:36;3.25;;;1.27;;
77078;SDS011;66004;55.096;38.760;2023-05-07T09:36:05;2.63;;;1.10;;
77078;SDS011;66004;55.096;38.760;2023-05-07T09:38:33;2.60;;;1.10;;
77078;SDS011;66004;55.096;38.760;2023-05-07T09:41:06;2.75;;;1.15;;
77078;SDS011;66004;55.096;38.760;2023-05-07T09:43:37;6.13;;;1.42;;
77078;SDS011;66004;55.096;38.760;2023-05-07T09:46:25;4.00;;;1.33;;
77078;SDS011;66004;55.096;38.760;2023-05-07T09:48:59;6.15;;;1.63;;
77078;SDS011;66004;55.096;38.760;2023-05-07T09:51:34;2.92;;;1.25;;
77078;SDS011;66004;55.096;38.760;2023-05-07T09:54:06;2.63;;;1.40;;
77078;SDS011;66004;55.096;38.760;2023-05-07T09:59:01;5.53;;;1.20;;
77078;SDS011;66004;55.096;38.760;2023-05-07T10:01:28;3.78;;;1.20;;
77078;SDS011;66004;55.096;38.760;2023-05-07T10:03:55;5.78;;;1.40;;
77078;SDS011;66004;55.096;38.760;2023-05-07T10:06:23;2.75;;;1.20;;
77078;SDS011;66004;55.096;38.760;2023-05-07T10:08:51;2.97;;;1.30;;
77078;SDS011;66004;55.096;38.760;2023-05-07T10:11:17;3.50;;;1.40;;
77078;SDS011;66004;55.096;38.760;2023-05-07T10:13:43;1.63;;;1.02;;
77078;SDS011;66004;55.096;38.760;2023-05-07T10:16:11;2.22;;;1.25;;
77078;SDS011;66004;55.096;38.760;2023-05-07T10:18:37;5.13;;;0.93;;
77078;SDS011;66004;55.096;38.760;2023-05-07T10:21:09;2.30;;;1.20;;
77078;SDS011;66004;55.096;38.760;2023-05-07T10:23:41;1.85;;;1.10;;
77078;SDS011;66004;55.096;38.760;2023-05-07T10:26:11;2.50;;;1.52;;
77078;SDS011;66004;55.096;38.760;2023-05-07T10:28:38;3.92;;;1.67;;
77078;SDS011;66004;55.096;38.760;2023-05-07T10:33:54;3.20;;;1.30;;
77078;SDS011;66004;55.096;38.760;2023-05-07T10:36:21;3.90;;;1.35;;
77078;SDS011;66004;55.096;38.760;2023-05-07T10:38:47;3.38;;;1.10;;
77078;SDS011;66004;55.096;38.760;2023-05-07T10:41:13;1.55;;;0.95;;
77078;SDS011;66004;55.096;38.760;2023-05-07T10:43:43;2.17;;;0.90;;
77078;SDS011;66004;55.096;38.760;2023-05-07T10:46:16;1.20;;;0.88;;
77078;SDS011;66004;55.096;38.760;2023-05-07T10:51:28;2.35;;;1.27;;
77078;SDS011;66004;55.096;38.760;2023-05-07T10:56:39;4.20;;;1.58;;
77078;SDS011;66004;55.096;38.760;2023-05-07T11:04:20;4.10;;;1.70;;
77078;SDS011;66004;55.096;38.760;2023-05-07T11:17:31;4.07;;;1.10;;
77078;SDS011;66004;55.096;38.760;2023-05-07T11:20:00;4.88;;;0.80;;
77078;SDS011;66004;55.096;38.760;2023-05-07T11:25:02;3.08;;;1.40;;
77078;SDS011;66004;55.096;38.760;2023-05-07T11:27:28;3.22;;;1.20;;
77078;SDS011;66004;55.096;38.760;2023-05-07T11:32:24;7.15;;;1.70;;
77078;SDS011;66004;55.096;38.760;2023-05-07T11:34:53;1.60;;;1.13;;
77078;SDS011;66004;55.096;38.760;2023-05-07T11:37:20;4.05;;;1.50;;
77078;SDS011;66004;55.096;38.760;2023-05-07T11:40:04;8.55;;;1.50;;
77078;SDS011;66004;55.096;38.760;2023-05-07T11:42:35;2.70;;;1.20;;
77078;SDS011;66004;55.096;38.760;2023-05-07T11:45:02;2.22;;;1.20;;
77078;SDS011;66004;55.096;38.760;2023-05-07T11:47:30;3.28;;;1.45;;
77078;SDS011;66004;55.096;38.760;2023-05-07T11:49:56;8.68;;;2.50;;
77078;SDS011;66004;55.096;38.760;2023-05-07T11:54:51;6.30;;;2.00;;
77078;SDS011;66004;55.096;38.760;2023-05-07T11:57:18;3.67;;;1.40;;
77078;SDS011;66004;55.096;38.760;2023-05-07T11:59:44;9.57;;;3.72;;
77078;SDS011;66004;55.096;38.760;2023-05-07T12:04:35;3.47;;;1.30;;
77078;SDS011;66004;55.096;38.760;2023-05-07T12:09:26;3.97;;;0.95;;
77078;SDS011;66004;55.096;38.760;2023-05-07T12:14:18;2.92;;;1.35;;
77078;SDS011;66004;55.096;38.760;2023-05-07T12:19:10;2.70;;;1.30;;
77078;SDS011;66004;55.096;38.760;2023-05-07T12:21:38;3.28;;;1.02;;
77078;SDS011;66004;55.096;38.760;2023-05-07T12:24:05;3.53;;;1.33;;
77078;SDS011;66004;55.096;38.760;2023-05-07T12:26:32;1.65;;;1.10;;
77078;SDS011;66004;55.096;38.760;2023-05-07T12:29:02;2.70;;;1.23;;
77078;SDS011;66004;55.096;38.760;2023-05-07T12:31:28;4.32;;;1.45;;
77078;SDS011;66004;55.096;38.760;2023-05-07T12:36:19;1.83;;;1.20;;
77078;SDS011;66004;55.096;38.760;2023-05-07T12:38:48;1.88;;;1.10;;
77078;SDS011;66004;55.096;38.760;2023-05-07T12:41:15;3.42;;;1.33;;
77078;SDS011;66004;55.096;38.760;2023-05-07T12:43:43;2.80;;;1.30;;
77078;SDS011;66004;55.096;38.760;2023-05-07T12:46:10;10.30;;;3.70;;
77078;SDS011;66004;55.096;38.760;2023-05-07T12:48:38;5.45;;;2.50;;
77078;SDS011;66004;55.096;38.760;2023-05-07T12:51:10;4.00;;;1.50;;
77078;SDS011;66004;55.096;38.760;2023-05-07T12:53:41;3.70;;;1.48;;
77078;SDS011;66004;55.096;38.760;2023-05-07T12:56:07;2.30;;;0.93;;
77078;SDS011;66004;55.096;38.760;2023-05-07T13:01:00;4.45;;;1.20;;
77078;SDS011;66004;55.096;38.760;2023-05-07T13:03:30;2.13;;;1.20;;
77078;SDS011;66004;55.096;38.760;2023-05-07T13:05:59;2.28;;;1.33;;
77078;SDS011;66004;55.096;38.760;2023-05-07T13:08:27;2.53;;;1.30;;
77078;SDS011;66004;55.096;38.760;2023-05-07T13:10:53;2.85;;;0.80;;
77078;SDS011;66004;55.096;38.760;2023-05-07T13:15:45;3.05;;;1.10;;
77078;SDS011;66004;55.096;38.760;2023-05-07T13:18:11;2.28;;;1.20;;
77078;SDS011;66004;55.096;38.760;2023-05-07T13:20:36;3.70;;;1.83;;
77078;SDS011;66004;55.096;38.760;2023-05-07T13:23:02;5.10;;;2.33;;
77078;SDS011;66004;55.096;38.760;2023-05-07T13:25:29;1.75;;;1.02;;
77078;SDS011;66004;55.096;38.760;2023-05-07T13:27:56;2.78;;;1.20;;
77078;SDS011;66004;55.096;38.760;2023-05-07T13:30:22;8.77;;;1.40;;
77078;SDS011;66004;55.096;38.760;2023-05-07T13:32:48;6.55;;;2.70;;
77078;SDS011;66004;55.096;38.760;2023-05-07T13:35:15;3.80;;;1.60;;
77078;SDS011;66004;55.096;38.760;2023-05-07T13:37:41;4.13;;;1.90;;
77078;SDS011;66004;55.096;38.760;2023-05-07T13:40:06;3.78;;;1.60;;
77078;SDS011;66004;55.096;38.760;2023-05-07T13:42:32;3.03;;;1.10;;
77078;SDS011;66004;55.096;38.760;2023-05-07T13:44:58;4.20;;;1.80;;
77078;SDS011;66004;55.096;38.760;2023-05-07T13:47:23;2.35;;;1.40;;
77078;SDS011;66004;55.096;38.760;2023-05-07T13:49:49;2.33;;;1.30;;
77078;SDS011;66004;55.096;38.760;2023-05-07T13:52:15;4.18;;;1.40;;
77078;SDS011;66004;55.096;38.760;2023-05-07T13:54:41;3.08;;;1.13;;
77078;SDS011;66004;55.096;38.760;2023-05-07T13:59:33;2.67;;;1.60;;
77078;SDS011;66004;55.096;38.760;2023-05-07T14:01:58;2.90;;;1.50;;
77078;SDS011;66004;55.096;38.760;2023-05-07T14:06:50;6.15;;;1.35;;
77078;SDS011;66004;55.096;38.760;2023-05-07T14:11:41;4.05;;;1.98;;
77078;SDS011;66004;55.096;38.760;2023-05-07T14:16:32;2.63;;;1.33;;
77078;SDS011;66004;55.096;38.760;2023-05-07T14:21:23;4.30;;;2.00;;
77078;SDS011;66004;55.096;38.760;2023-05-07T14:26:13;5.97;;;2.00;;
77078;SDS011;66004;55.096;38.760;2023-05-07T14:28:39;3.28;;;1.30;;
77078;SDS011;66004;55.096;38.760;2023-05-07T14:31:06;6.25;;;2.42;;
77078;SDS011;66004;55.096;38.760;2023-05-07T14:35:57;5.57;;;1.65;;
77078;SDS011;66004;55.096;38.760;2023-05-07T14:40:48;3.40;;;1.20;;
77078;SDS011;66004;55.096;38.760;2023-05-07T14:45:39;3.35;;;1.77;;
77078;SDS011;66004;55.096;38.760;2023-05-07T15:05:15;8.82;;;2.15;;
77078;SDS011;66004;55.096;38.760;2023-05-07T15:07:42;5.93;;;2.10;;
77078;SDS011;66004;55.096;38.760;2023-05-07T15:12:33;9.20;;;3.63;;
77078;SDS011;66004;55.096;38.760;2023-05-07T15:14:58;3.28;;;1.60;;
77078;SDS011;66004;55.096;38.760;2023-05-07T15:19:49;2.22;;;1.40;;
77078;SDS011;66004;55.096;38.760;2023-05-07T15:24:40;6.40;;;2.03;;
77078;SDS011;66004;55.096;38.760;2023-05-07T15:29:31;4.05;;;1.70;;
77078;SDS011;66004;55.096;38.760;2023-05-07T15:34:22;18.98;;;6.45;;
77078;SDS011;66004;55.096;38.760;2023-05-07T15:36:49;4.43;;;2.25;;
77078;SDS011;66004;55.096;38.760;2023-05-07T15:41:40;5.15;;;2.90;;
77078;SDS011;66004;55.096;38.760;2023-05-07T15:46:31;22.30;;;8.75;;
77078;SDS011;66004;55.096;38.760;2023-05-07T15:51:22;6.72;;;2.72;;
77078;SDS011;66004;55.096;38.760;2023-05-07T15:56:13;4.45;;;2.45;;
77078;SDS011;66004;55.096;38.760;2023-05-07T15:58:39;2.45;;;1.60;;
77078;SDS011;66004;55.096;38.760;2023-05-07T16:03:30;5.65;;;2.80;;
77078;SDS011;66004;55.096;38.760;2023-05-07T16:08:27;2.47;;;1.42;;
77078;SDS011;66004;55.096;38.760;2023-05-07T16:13:19;9.63;;;2.55;;
77078;SDS011;66004;55.096;38.760;2023-05-07T16:18:10;5.95;;;1.98;;
77078;SDS011;66004;55.096;38.760;2023-05-07T16:20:40;4.70;;;2.30;;
77078;SDS011;66004;55.096;38.760;2023-05-07T16:23:07;9.48;;;2.25;;
77078;SDS011;66004;55.096;38.760;2023-05-07T16:27:58;5.18;;;2.30;;
77078;SDS011;66004;55.096;38.760;2023-05-07T16:32:49;5.32;;;1.92;;
77078;SDS011;66004;55.096;38.760;2023-05-07T16:37:40;7.88;;;2.97;;
77078;SDS011;66004;55.096;38.760;2023-05-07T16:42:33;8.65;;;4.55;;
77078;SDS011;66004;55.096;38.760;2023-05-07T16:45:00;9.55;;;4.43;;
77078;SDS011;66004;55.096;38.760;2023-05-07T16:47:26;10.75;;;4.15;;
77078;SDS011;66004;55.096;38.760;2023-05-07T16:52:18;13.13;;;6.00;;
77078;SDS011;66004;55.096;38.760;2023-05-07T16:57:09;11.57;;;4.00;;
77078;SDS011;66004;55.096;38.760;2023-05-07T17:02:01;9.43;;;3.85;;
77078;SDS011;66004;55.096;38.760;2023-05-07T17:04:26;13.23;;;7.70;;
77078;SDS011;66004;55.096;38.760;2023-05-07T17:06:52;12.30;;;5.60;;
77078;SDS011;66004;55.096;38.760;2023-05-07T17:09:18;9.93;;;4.85;;
77078;SDS011;66004;55.096;38.760;2023-05-07T17:14:08;10.00;;;4.10;;
77078;SDS011;66004;55.096;38.760;2023-05-07T17:16:35;9.27;;;4.55;;
77078;SDS011;66004;55.096;38.760;2023-05-07T17:21:26;15.25;;;5.00;;
77078;SDS011;66004;55.096;38.760;2023-05-07T17:26:17;14.82;;;5.53;;
77078;SDS011;66004;55.096;38.760;2023-05-07T17:31:08;28.35;;;10.20;;
77078;SDS011;66004;55.096;38.760;2023-05-07T17:35:58;23.73;;;10.50;;
77078;SDS011;66004;55.096;38.760;2023-05-07T17:38:27;25.02;;;10.10;;
77078;SDS011;66004;55.096;38.760;2023-05-07T17:40:53;21.15;;;9.32;;
77078;SDS011;66004;55.096;38.760;2023-05-07T17:43:19;24.25;;;10.25;;
77078;SDS011;66004;55.096;38.760;2023-05-07T17:45:46;22.30;;;10.20;;
77078;SDS011;66004;55.096;38.760;2023-05-07T17:48:12;23.60;;;10.82;;
77078;SDS011;66004;55.096;38.760;2023-05-07T17:53:03;20.73;;;8.15;;
77078;SDS011;66004;55.096;38.760;2023-05-07T17:55:30;15.68;;;7.40;;
77078;SDS011;66004;55.096;38.760;2023-05-07T17:57:57;18.67;;;7.50;;
77078;SDS011;66004;55.096;38.760;2023-05-07T18:00:23;19.63;;;9.52;;
77078;SDS011;66004;55.096;38.760;2023-05-07T18:02:52;19.88;;;8.02;;
77078;SDS011;66004;55.096;38.760;2023-05-07T18:05:18;16.10;;;8.30;;
77078;SDS011;66004;55.096;38.760;2023-05-07T18:07:43;20.60;;;8.93;;
77078;SDS011;66004;55.096;38.760;2023-05-07T18:10:09;23.42;;;8.48;;
77078;SDS011;66004;55.096;38.760;2023-05-07T18:15:00;26.75;;;8.75;;
77078;SDS011;66004;55.096;38.760;2023-05-07T18:17:26;20.25;;;8.80;;
77078;SDS011;66004;55.096;38.760;2023-05-07T18:19:51;21.55;;;8.13;;
77078;SDS011;66004;55.096;38.760;2023-05-07T18:22:17;18.00;;;7.38;;
77078;SDS011;66004;55.096;38.760;2023-05-07T18:24:43;11.95;;;7.18;;
77078;SDS011;66004;55.096;38.760;2023-05-07T18:27:08;23.58;;;10.52;;